createdAt,value
2019-05-11T00:02:01.231Z,11.00
2019-05-11T00:04:30.690Z,11.00
2019-05-11T00:06:59.752Z,11.00
2019-05-11T00:09:28.839Z,11.00
2019-05-11T00:11:57.890Z,11.00
2019-05-11T00:14:26.998Z,11.00
2019-05-11T00:16:56.068Z,10.90
2019-05-11T00:19:25.165Z,11.00
2019-05-11T00:21:54.239Z,11.00
2019-05-11T00:24:23.306Z,11.00
2019-05-11T00:26:52.466Z,10.90
2019-05-11T00:29:21.547Z,11.00
2019-05-11T00:31:50.634Z,11.00
2019-05-11T00:34:19.691Z,10.90
2019-05-11T00:36:48.770Z,10.90
2019-05-11T00:39:17.868Z,10.90
2019-05-11T00:41:46.964Z,10.90
2019-05-11T00:44:16.419Z,10.90
2019-05-11T00:46:45.525Z,10.90
2019-05-11T00:49:14.660Z,10.90
2019-05-11T00:51:43.740Z,10.90
2019-05-11T00:54:12.843Z,10.90
2019-05-11T00:56:41.911Z,10.90
2019-05-11T00:59:21.518Z,10.90
2019-05-11T01:01:41.792Z,10.90
2019-05-11T01:04:10.921Z,10.90
2019-05-11T01:06:40.052Z,10.90
2019-05-11T01:09:09.500Z,10.90
2019-05-11T01:11:38.669Z,10.90
2019-05-11T01:14:07.723Z,11.00
2019-05-11T01:16:36.811Z,10.90
2019-05-11T01:19:05.891Z,10.90
2019-05-11T01:21:35.353Z,11.00
2019-05-11T01:24:04.513Z,11.00
2019-05-11T01:26:33.620Z,11.00
2019-05-11T01:29:02.705Z,11.00
2019-05-11T01:31:31.781Z,11.00
2019-05-11T01:34:00.863Z,11.00
2019-05-11T01:36:29.939Z,11.00
2019-05-11T01:38:59.032Z,10.90
2019-05-11T01:41:28.111Z,11.00
2019-05-11T01:43:57.219Z,11.00
2019-05-11T01:46:26.287Z,10.90
2019-05-11T01:48:55.387Z,11.00
2019-05-11T01:51:24.460Z,11.00
2019-05-11T01:53:53.545Z,10.90
2019-05-11T01:56:22.697Z,10.90
2019-05-11T01:58:51.787Z,11.00
2019-05-11T02:01:20.892Z,11.00
2019-05-11T02:03:49.945Z,10.90
2019-05-11T02:06:19.059Z,11.00
2019-05-11T02:08:48.568Z,11.00
2019-05-11T02:11:17.724Z,11.00
2019-05-11T02:13:46.823Z,10.90
2019-05-11T02:16:15.920Z,10.90
2019-05-11T02:18:44.993Z,11.00
2019-05-11T02:21:14.091Z,10.90
2019-05-11T02:23:43.220Z,11.00
2019-05-11T02:26:12.324Z,11.00
2019-05-11T02:28:41.420Z,11.00
2019-05-11T02:31:10.502Z,11.00
2019-05-11T02:33:39.567Z,11.00
2019-05-11T02:36:08.658Z,11.00
2019-05-11T02:38:37.741Z,11.10
2019-05-11T02:41:06.826Z,11.10
2019-05-11T02:43:35.902Z,11.10
2019-05-11T02:46:05.034Z,11.10
2019-05-11T02:48:34.109Z,11.20
2019-05-11T02:51:03.407Z,11.20
2019-05-11T02:53:34.474Z,11.20
2019-05-11T02:56:04.472Z,11.30
2019-05-11T02:58:33.632Z,11.20
2019-05-11T03:01:02.716Z,11.30
2019-05-11T03:03:31.803Z,11.30
2019-05-11T03:06:00.910Z,11.30
2019-05-11T03:08:30.094Z,11.40
2019-05-11T03:10:59.184Z,11.40
2019-05-11T03:13:28.304Z,11.50
2019-05-11T03:15:57.388Z,11.50
2019-05-11T03:18:26.472Z,11.50
2019-05-11T03:20:55.558Z,11.50
2019-05-11T03:23:24.703Z,11.50
2019-05-11T03:25:53.811Z,11.60
2019-05-11T03:28:22.908Z,11.60
2019-05-11T03:30:52.026Z,11.60
2019-05-11T03:33:21.165Z,11.60
2019-05-11T03:35:50.268Z,11.70
2019-05-11T03:38:19.354Z,11.70
2019-05-11T03:40:48.433Z,11.70
2019-05-11T03:43:17.524Z,11.70
2019-05-11T03:45:46.622Z,11.70
2019-05-11T03:48:15.710Z,11.80
2019-05-11T03:50:44.841Z,11.80
2019-05-11T03:53:13.974Z,11.80
2019-05-11T03:55:43.068Z,11.80
2019-05-11T03:58:12.172Z,11.80
2019-05-11T04:00:41.275Z,11.90
2019-05-11T04:03:10.385Z,11.90
2019-05-11T04:05:39.483Z,11.90
2019-05-11T04:08:08.555Z,12.00
2019-05-11T04:10:37.788Z,12.00
2019-05-11T04:13:06.872Z,12.10
2019-05-11T04:15:35.983Z,12.10
2019-05-11T04:18:05.197Z,12.10
2019-05-11T04:20:34.348Z,12.10
2019-05-11T04:23:03.542Z,12.10
2019-05-11T04:25:32.637Z,12.10
2019-05-11T04:28:01.718Z,12.10
2019-05-11T04:30:30.817Z,12.20
2019-05-11T04:32:59.975Z,12.20
2019-05-11T04:35:29.072Z,12.20
2019-05-11T04:37:58.175Z,12.20
2019-05-11T04:40:27.243Z,12.30
2019-05-11T04:42:56.544Z,12.30
2019-05-11T04:45:25.824Z,12.40
2019-05-11T04:47:54.918Z,12.40
2019-05-11T04:50:24.031Z,12.40
2019-05-11T04:52:53.116Z,12.40
2019-05-11T04:55:22.230Z,12.40
2019-05-11T04:57:51.368Z,12.40
2019-05-11T05:00:20.437Z,12.40
2019-05-11T05:02:49.515Z,12.40
2019-05-11T05:05:18.589Z,12.40
2019-05-11T05:07:48.870Z,12.40
2019-05-11T05:10:21.933Z,12.40
2019-05-11T05:12:51.360Z,12.50
2019-05-11T05:15:20.133Z,12.50
2019-05-11T05:17:49.226Z,12.50
2019-05-11T05:20:18.300Z,12.60
2019-05-11T05:22:47.373Z,12.60
2019-05-11T05:25:16.452Z,12.60
2019-05-11T05:27:45.541Z,12.60
2019-05-11T05:30:14.762Z,12.70
2019-05-11T05:32:43.849Z,12.70
2019-05-11T05:35:13.030Z,12.70
2019-05-11T05:37:42.160Z,12.80
2019-05-11T05:40:11.371Z,12.80
2019-05-11T05:42:40.457Z,12.90
2019-05-11T05:45:09.944Z,12.90
2019-05-11T05:47:39.027Z,12.90
2019-05-11T05:50:08.245Z,12.90
2019-05-11T05:52:37.582Z,12.90
2019-05-11T05:55:06.730Z,12.80
2019-05-11T05:57:36.016Z,12.80
2019-05-11T06:00:05.478Z,12.80
2019-05-11T06:02:34.704Z,12.80
2019-05-11T06:05:03.973Z,12.90
2019-05-11T06:07:33.326Z,13.00
2019-05-11T06:10:02.572Z,13.00
2019-05-11T06:12:31.656Z,13.10
2019-05-11T06:15:00.804Z,13.30
2019-05-11T06:17:29.916Z,13.40
2019-05-11T06:19:59.034Z,13.40
2019-05-11T06:22:28.140Z,13.40
2019-05-11T06:24:57.338Z,13.40
2019-05-11T06:27:26.468Z,13.40
2019-05-11T06:29:55.568Z,13.40
2019-05-11T06:32:24.662Z,13.40
2019-05-11T06:34:53.715Z,13.40
2019-05-11T06:37:22.846Z,13.40
2019-05-11T06:39:52.022Z,13.40
2019-05-11T06:42:21.127Z,13.40
2019-05-11T06:44:50.319Z,13.40
2019-05-11T06:47:19.628Z,13.40
2019-05-11T06:49:48.714Z,13.30
2019-05-11T06:52:17.806Z,13.30
2019-05-11T06:54:47.011Z,13.30
2019-05-11T06:57:16.173Z,13.30
2019-05-11T06:59:45.256Z,13.30
2019-05-11T07:02:14.404Z,13.30
2019-05-11T07:04:43.631Z,13.30
2019-05-11T07:07:12.722Z,13.30
2019-05-11T07:09:41.860Z,13.50
2019-05-11T07:12:11.090Z,13.60
2019-05-11T07:14:40.378Z,13.80
2019-05-11T07:17:09.585Z,13.80
2019-05-11T07:19:38.696Z,13.90
2019-05-11T07:22:07.776Z,13.90
2019-05-11T07:24:36.907Z,13.90
2019-05-11T07:27:06.023Z,13.80
2019-05-11T07:29:35.118Z,13.80
2019-05-11T07:32:10.123Z,13.70
2019-05-11T07:34:35.355Z,13.60
2019-05-11T07:37:04.580Z,13.50
2019-05-11T07:39:33.790Z,13.40
2019-05-11T07:42:03.002Z,13.40
2019-05-11T07:44:38.282Z,13.30
2019-05-11T07:47:03.278Z,13.30
2019-05-11T07:49:32.359Z,13.30
2019-05-11T07:52:01.449Z,13.30
2019-05-11T07:54:30.587Z,13.20
2019-05-11T07:56:59.688Z,13.10
2019-05-11T07:59:29.093Z,12.90
2019-05-11T08:01:58.553Z,12.70
2019-05-11T08:04:28.777Z,12.60
2019-05-11T08:06:58.534Z,12.40
2019-05-11T08:09:27.991Z,12.30
2019-05-11T08:11:58.480Z,12.10
2019-05-11T08:14:28.827Z,12.10
2019-05-11T08:16:59.486Z,12.10
2019-05-11T08:19:28.768Z,12.20
2019-05-11T08:21:58.402Z,12.30
2019-05-11T08:24:28.414Z,12.50
2019-05-11T08:26:58.320Z,12.70
2019-05-11T08:29:27.969Z,12.80
2019-05-11T08:31:57.974Z,13.00
2019-05-11T08:34:28.584Z,13.10
2019-05-11T08:36:58.513Z,13.10
2019-05-11T08:39:28.808Z,13.30
2019-05-11T08:41:58.934Z,13.40
2019-05-11T08:44:28.856Z,13.40
2019-05-11T08:46:58.410Z,13.40
2019-05-11T08:49:28.631Z,13.20
2019-05-11T08:51:58.194Z,13.10
2019-05-11T08:54:28.913Z,12.90
2019-05-11T08:56:58.750Z,12.80
2019-05-11T08:59:28.194Z,12.70
2019-05-11T09:01:58.714Z,12.70
2019-05-11T09:04:28.831Z,12.80
2019-05-11T09:06:58.827Z,12.90
2019-05-11T09:09:28.791Z,13.30
2019-05-11T09:11:58.834Z,13.80
2019-05-11T09:14:28.521Z,14.20
2019-05-11T09:16:57.993Z,14.50
2019-05-11T09:19:28.515Z,14.90
2019-05-11T09:21:58.875Z,15.20
2019-05-11T09:24:28.337Z,15.40
2019-05-11T09:26:58.587Z,15.60
2019-05-11T09:29:28.309Z,15.70
2019-05-11T09:31:58.260Z,15.70
2019-05-11T09:34:28.801Z,15.80
2019-05-11T09:36:58.730Z,15.80
2019-05-11T09:39:28.261Z,15.60
2019-05-11T09:41:58.494Z,15.50
2019-05-11T09:44:28.865Z,15.50
2019-05-11T09:47:01.838Z,15.60
2019-05-11T09:49:43.750Z,15.70
2019-05-11T09:51:59.974Z,16.10
2019-05-11T09:54:29.153Z,16.30
2019-05-11T09:56:58.253Z,16.70
2019-05-11T09:59:28.166Z,16.90
2019-05-11T10:01:58.981Z,17.00
2019-05-11T10:04:28.976Z,17.00
2019-05-11T10:06:58.638Z,17.00
2019-05-11T10:09:28.211Z,17.10
2019-05-11T10:11:58.453Z,17.20
2019-05-11T10:14:28.865Z,17.40
2019-05-11T10:16:58.592Z,17.50
2019-05-11T10:19:28.538Z,17.50
2019-05-11T10:21:58.163Z,17.60
2019-05-11T10:24:28.374Z,17.60
2019-05-11T10:26:57.985Z,17.60
2019-05-11T10:29:28.906Z,17.50
2019-05-11T10:31:58.859Z,17.40
2019-05-11T10:34:28.647Z,17.40
2019-05-11T10:36:58.176Z,17.60
2019-05-11T10:39:28.011Z,17.80
2019-05-11T10:41:58.300Z,17.90
2019-05-11T10:44:28.242Z,17.90
2019-05-11T10:46:58.883Z,18.00
2019-05-11T10:49:28.871Z,18.00
2019-05-11T10:51:58.792Z,18.00
2019-05-11T10:54:28.923Z,18.10
2019-05-11T10:56:58.235Z,18.30
2019-05-11T10:59:28.347Z,18.50
2019-05-11T11:01:58.963Z,18.50
2019-05-11T11:04:28.893Z,18.30
2019-05-11T11:06:59.150Z,18.10
2019-05-11T11:09:28.695Z,17.70
2019-05-11T11:11:58.073Z,17.10
2019-05-11T11:14:28.719Z,16.50
2019-05-11T11:16:58.562Z,15.90
2019-05-11T11:19:28.930Z,15.30
2019-05-11T11:22:22.278Z,15.00
2019-05-11T11:24:29.272Z,14.80
2019-05-11T11:26:58.374Z,14.60
2019-05-11T11:29:28.823Z,14.60
2019-05-11T11:31:58.696Z,14.50
2019-05-11T11:34:28.208Z,14.40
2019-05-11T11:36:58.029Z,14.40
2019-05-11T11:39:28.293Z,14.50
2019-05-11T11:41:58.600Z,14.50
2019-05-11T11:44:28.595Z,14.60
2019-05-11T11:46:59.059Z,14.70
2019-05-11T11:49:28.558Z,14.80
2019-05-11T11:51:57.962Z,14.60
2019-05-11T11:54:28.753Z,14.40
2019-05-11T11:56:58.952Z,14.20
2019-05-11T11:59:28.807Z,13.90
2019-05-11T12:01:58.302Z,13.60
2019-05-11T12:04:28.358Z,13.20
2019-05-11T12:06:58.176Z,12.80
2019-05-11T12:09:28.594Z,12.50
2019-05-11T12:11:58.439Z,12.30
2019-05-11T12:14:28.208Z,12.10
2019-05-11T12:17:07.088Z,12.00
2019-05-11T12:19:28.502Z,11.80
2019-05-11T12:21:58.218Z,11.70
2019-05-11T12:24:28.798Z,11.50
2019-05-11T12:27:07.524Z,11.30
2019-05-11T12:29:38.397Z,11.10
2019-05-11T12:32:10.252Z,11.10
2019-05-11T12:34:39.348Z,11.10
2019-05-11T12:37:08.580Z,11.00
2019-05-11T12:39:38.546Z,11.00
2019-05-11T12:42:08.652Z,11.00
2019-05-11T12:44:38.702Z,11.10
2019-05-11T12:47:21.112Z,11.00
2019-05-11T12:49:39.100Z,11.00
2019-05-11T12:52:08.351Z,11.00
2019-05-11T12:54:38.473Z,10.90
2019-05-11T12:57:07.969Z,10.80
2019-05-11T12:59:38.099Z,10.80
2019-05-11T13:02:08.160Z,10.80
2019-05-11T13:04:38.506Z,10.80
2019-05-11T13:07:08.767Z,10.80
2019-05-11T13:09:38.073Z,10.90
2019-05-11T13:12:08.094Z,10.90
2019-05-11T13:14:38.173Z,10.90
2019-05-11T13:17:07.846Z,10.90
2019-05-11T13:19:38.610Z,10.90
2019-05-11T13:22:08.000Z,10.80
2019-05-11T13:24:38.547Z,10.80
2019-05-11T13:27:08.328Z,10.90
2019-05-11T13:29:37.941Z,10.80
2019-05-11T13:32:07.832Z,10.90
2019-05-11T13:34:38.733Z,10.90
2019-05-11T13:37:08.167Z,10.90
2019-05-11T13:39:37.843Z,10.90
2019-05-11T13:42:08.200Z,10.80
2019-05-11T13:44:38.515Z,10.70
2019-05-11T13:47:08.605Z,10.70
2019-05-11T13:49:37.936Z,10.60
2019-05-11T13:52:08.605Z,10.60
2019-05-11T13:54:37.792Z,10.50
2019-05-11T13:57:08.014Z,10.40
2019-05-11T13:59:38.463Z,10.40
2019-05-11T14:02:10.813Z,10.40
2019-05-11T14:04:38.781Z,10.40
2019-05-11T14:07:08.254Z,10.40
2019-05-11T14:09:38.055Z,10.40
2019-05-11T14:12:07.828Z,10.40
2019-05-11T14:14:37.762Z,10.40
2019-05-11T14:17:08.243Z,10.40
2019-05-11T14:19:38.447Z,10.40
2019-05-11T14:22:08.662Z,10.40
2019-05-11T14:24:38.041Z,10.40
2019-05-11T14:27:08.510Z,10.30
2019-05-11T14:29:38.512Z,10.30
2019-05-11T14:32:08.537Z,10.30
2019-05-11T14:34:38.682Z,10.20
2019-05-11T14:37:08.794Z,10.20
2019-05-11T14:39:38.441Z,10.00
2019-05-11T14:42:07.824Z,10.00
2019-05-11T14:44:37.674Z,10.00
2019-05-11T14:47:08.517Z,10.00
2019-05-11T14:49:37.971Z,10.00
2019-05-11T14:52:08.308Z,10.00
2019-05-11T14:54:38.215Z,9.90
2019-05-11T14:57:08.066Z,10.00
2019-05-11T14:59:37.823Z,10.10
2019-05-11T15:02:24.899Z,10.10
2019-05-11T15:04:53.997Z,10.20
2019-05-11T15:07:23.100Z,10.20
2019-05-11T15:09:52.186Z,10.20
2019-05-11T15:12:21.294Z,10.20
2019-05-11T15:14:50.415Z,10.20
2019-05-11T15:17:19.519Z,10.20
2019-05-11T15:19:48.916Z,10.00
2019-05-11T15:22:18.320Z,9.80
2019-05-11T15:24:48.426Z,9.80
2019-05-11T15:27:18.338Z,9.70
2019-05-11T15:29:47.858Z,9.70
2019-05-11T15:32:18.016Z,9.70
2019-05-11T15:34:48.738Z,9.70
2019-05-11T15:37:18.007Z,9.70
2019-05-11T15:39:48.383Z,9.70
2019-05-11T15:42:19.800Z,9.80
2019-05-11T15:44:48.482Z,9.80
2019-05-11T15:47:17.564Z,9.90
2019-05-11T15:49:48.511Z,10.00
2019-05-11T15:52:18.824Z,10.00
2019-05-11T15:54:48.078Z,10.00
2019-05-11T15:57:38.201Z,10.00
2019-05-11T16:00:09.267Z,10.10
2019-05-11T16:02:41.124Z,10.10
2019-05-11T16:05:09.643Z,10.00
2019-05-11T16:07:38.714Z,10.00
2019-05-11T16:10:09.661Z,10.00
2019-05-11T16:12:39.135Z,10.00
2019-05-11T16:15:09.537Z,10.00
2019-05-11T16:17:40.357Z,10.10
2019-05-11T16:20:10.230Z,10.20
2019-05-11T16:22:39.314Z,10.20
2019-05-11T16:25:09.306Z,10.30
2019-05-11T16:27:38.392Z,10.40
2019-05-11T16:30:08.156Z,10.40
2019-05-11T16:32:38.660Z,10.60
2019-05-11T16:35:08.916Z,10.70
2019-05-11T16:37:38.140Z,10.90
2019-05-11T16:40:08.109Z,11.10
2019-05-11T16:42:38.708Z,11.30
2019-05-11T16:45:08.904Z,11.40
2019-05-11T16:47:39.372Z,11.40
2019-05-11T16:50:08.967Z,11.50
2019-05-11T16:52:41.228Z,11.30
2019-05-11T16:55:10.447Z,11.30
2019-05-11T16:57:39.526Z,11.20
2019-05-11T17:00:09.693Z,11.20
2019-05-11T17:02:38.782Z,11.10
2019-05-11T17:05:08.954Z,11.00
2019-05-11T17:07:38.029Z,10.90
2019-05-11T17:10:08.466Z,10.80
2019-05-11T17:12:38.471Z,10.70
2019-05-11T17:15:09.094Z,10.60
2019-05-11T17:17:38.193Z,10.60
2019-05-11T17:20:08.030Z,10.50
2019-05-11T17:22:38.882Z,10.40
2019-05-11T17:25:08.729Z,10.30
2019-05-11T17:27:37.989Z,10.30
2019-05-11T17:30:08.606Z,10.20
2019-05-11T17:32:38.409Z,10.20
2019-05-11T17:35:08.482Z,10.20
2019-05-11T17:37:38.180Z,10.30
2019-05-11T17:40:10.267Z,10.40
2019-05-11T17:42:39.471Z,10.50
2019-05-11T17:45:08.563Z,10.50
2019-05-11T17:47:38.830Z,10.50
2019-05-11T17:50:09.277Z,10.50
2019-05-11T17:52:38.578Z,10.60
2019-05-11T17:55:07.902Z,10.70
2019-05-11T17:57:38.241Z,10.80
2019-05-11T18:00:08.176Z,10.90
2019-05-11T18:02:38.980Z,11.00
2019-05-11T18:05:08.995Z,11.00
2019-05-11T18:07:38.775Z,11.00
2019-05-11T18:10:08.480Z,11.00
2019-05-11T18:12:39.086Z,11.00
2019-05-11T18:15:09.538Z,11.00
2019-05-11T18:17:38.813Z,11.00
2019-05-11T18:20:16.878Z,11.00
2019-05-11T18:22:40.131Z,11.00
2019-05-11T18:25:10.077Z,11.00
2019-05-11T18:27:39.189Z,11.00
2019-05-11T18:30:08.795Z,10.90
2019-05-11T18:32:39.618Z,10.80
2019-05-11T18:35:09.102Z,10.80
2019-05-11T18:37:39.003Z,10.60
2019-05-11T18:40:08.630Z,10.50
2019-05-11T18:42:38.350Z,10.40
2019-05-11T18:45:08.286Z,10.30
2019-05-11T18:47:38.364Z,10.20
2019-05-11T18:50:07.736Z,10.00
2019-05-11T18:52:36.824Z,9.90
2019-05-11T18:55:08.373Z,9.90
2019-05-11T18:57:38.390Z,9.80
2019-05-11T19:00:08.391Z,9.80
2019-05-11T19:02:38.565Z,9.70
2019-05-11T19:05:08.001Z,9.70
2019-05-11T19:07:38.732Z,9.60
2019-05-11T19:10:08.543Z,9.60
2019-05-11T19:12:37.850Z,9.60
2019-05-11T19:15:09.400Z,9.60
2019-05-11T19:17:38.718Z,9.50
2019-05-11T19:20:08.533Z,9.50
2019-05-11T19:22:37.780Z,9.40
2019-05-11T19:25:08.970Z,9.40
2019-05-11T19:27:38.168Z,9.40
2019-05-11T19:30:08.130Z,9.40
2019-05-11T19:32:38.274Z,9.40
2019-05-11T19:35:08.926Z,9.50
2019-05-11T19:37:39.121Z,9.50
2019-05-11T19:40:09.119Z,9.50
2019-05-11T19:42:54.908Z,9.50
2019-05-11T19:45:24.131Z,9.60
2019-05-11T19:47:53.407Z,9.60
2019-05-11T19:50:22.486Z,9.60
2019-05-11T19:52:51.595Z,9.60
2019-05-11T19:55:20.685Z,9.60
2019-05-11T19:57:49.852Z,9.60
2019-05-11T20:00:19.313Z,9.70
2019-05-11T20:02:48.417Z,9.70
2019-05-11T20:05:18.396Z,9.70
2019-05-11T20:07:48.743Z,9.60
2019-05-11T20:10:19.022Z,9.60
2019-05-11T20:12:48.692Z,9.60
2019-05-11T20:15:18.846Z,9.60
2019-05-11T20:17:49.092Z,9.50
2019-05-11T20:20:18.980Z,9.60
2019-05-11T20:22:48.800Z,9.60
2019-05-11T20:25:19.134Z,9.60
2019-05-11T20:27:49.612Z,9.50
2019-05-11T20:30:19.462Z,9.40
2019-05-11T20:32:49.152Z,9.30
2019-05-11T20:35:38.332Z,9.20
2019-05-11T20:38:08.630Z,9.10
2019-05-11T20:40:37.906Z,9.00
2019-05-11T20:43:07.999Z,8.90
2019-05-11T20:45:37.819Z,8.80
2019-05-11T20:48:07.950Z,8.70
2019-05-11T20:50:37.927Z,8.70
2019-05-11T20:53:08.551Z,8.60
2019-05-11T20:55:37.824Z,8.50
2019-05-11T20:58:08.600Z,8.40
2019-05-11T21:00:38.296Z,8.40
2019-05-11T21:03:08.073Z,8.30
2019-05-11T21:05:37.310Z,8.30
2019-05-11T21:08:08.414Z,8.30
2019-05-11T21:10:38.580Z,8.20
2019-05-11T21:13:08.583Z,8.10
2019-05-11T21:15:38.470Z,8.10
2019-05-11T21:18:08.022Z,8.00
2019-05-11T21:20:38.067Z,7.90
2019-05-11T21:23:08.170Z,7.90
2019-05-11T21:25:37.868Z,7.80
2019-05-11T21:28:08.558Z,7.70
2019-05-11T21:30:39.990Z,7.70
2019-05-11T21:33:08.829Z,7.60
2019-05-11T21:35:38.632Z,7.60
2019-05-11T21:38:07.932Z,7.70
2019-05-11T21:40:38.084Z,7.70
2019-05-11T21:43:08.764Z,7.60
2019-05-11T21:45:40.525Z,7.60
2019-05-11T21:48:08.888Z,7.60
2019-05-11T21:50:38.114Z,7.60
2019-05-11T21:53:10.278Z,7.60
2019-05-11T21:55:38.107Z,7.60
2019-05-11T21:58:09.041Z,7.60
2019-05-11T22:00:39.293Z,7.70
2019-05-11T22:03:10.366Z,7.70
2019-05-11T22:05:39.295Z,7.70
2019-05-11T22:08:08.713Z,7.70
2019-05-11T22:10:38.638Z,7.60
2019-05-11T22:13:07.867Z,7.50
2019-05-11T22:15:38.534Z,7.50
2019-05-11T22:18:08.172Z,7.50
2019-05-11T22:20:38.010Z,7.60
2019-05-11T22:23:08.559Z,7.60
2019-05-11T22:25:38.339Z,7.70
2019-05-11T22:28:08.492Z,7.70
2019-05-11T22:30:39.350Z,7.70
2019-05-11T22:33:08.928Z,7.70
2019-05-11T22:35:38.351Z,7.80
2019-05-11T22:38:08.399Z,7.90
2019-05-11T22:40:38.332Z,7.90
2019-05-11T22:43:09.265Z,7.90
2019-05-11T22:45:38.554Z,7.90
2019-05-11T22:48:08.063Z,8.00
2019-05-11T22:50:38.260Z,8.00
2019-05-11T22:53:08.763Z,8.10
2019-05-11T22:55:38.440Z,8.10
2019-05-11T22:58:08.481Z,8.10
2019-05-11T23:00:43.341Z,8.10
2019-05-11T23:03:12.924Z,8.10
2019-05-11T23:05:42.563Z,8.00
2019-05-11T23:08:11.640Z,8.00
2019-05-11T23:10:40.859Z,7.90
2019-05-11T23:13:11.332Z,7.90
2019-05-11T23:15:40.857Z,7.90
2019-05-11T23:18:09.967Z,7.90
2019-05-11T23:20:39.042Z,7.90
2019-05-11T23:23:08.912Z,7.90
2019-05-11T23:25:38.135Z,7.80
2019-05-11T23:28:07.252Z,7.80
2019-05-11T23:30:38.648Z,7.70
2019-05-11T23:33:07.929Z,7.70
2019-05-11T23:35:38.198Z,7.60
2019-05-11T23:38:07.628Z,7.60
2019-05-11T23:40:37.888Z,7.50
2019-05-11T23:43:08.607Z,7.40
2019-05-11T23:45:38.268Z,7.40
2019-05-11T23:48:07.474Z,7.30
2019-05-11T23:50:38.643Z,7.40
2019-05-11T23:53:10.051Z,7.30
2019-05-11T23:55:38.234Z,7.40
2019-05-11T23:58:08.157Z,7.30
